sensor_id;sensor_type;location;lat;lon;timestamp;P1;durP1;ratioP1;P2;durP2;ratioP2
68214;SDS011;55036;52.138;5.236;2022-11-20T00:01:23;18.38;;;12.68;;
68214;SDS011;55036;52.138;5.236;2022-11-20T00:03:51;22.63;;;12.32;;
68214;SDS011;55036;52.138;5.236;2022-11-20T00:06:19;18.42;;;10.85;;
68214;SDS011;55036;52.138;5.236;2022-11-20T00:08:46;19.20;;;11.57;;
68214;SDS011;55036;52.138;5.236;2022-11-20T00:11:15;19.15;;;12.23;;
68214;SDS011;55036;52.138;5.236;2022-11-20T00:13:44;21.27;;;12.15;;
68214;SDS011;55036;52.138;5.236;2022-11-20T00:16:13;21.17;;;11.77;;
68214;SDS011;55036;52.138;5.236;2022-11-20T00:18:41;18.88;;;11.50;;
68214;SDS011;55036;52.138;5.236;2022-11-20T00:21:12;19.15;;;11.40;;
68214;SDS011;55036;52.138;5.236;2022-11-20T00:23:40;20.90;;;11.38;;
68214;SDS011;55036;52.138;5.236;2022-11-20T00:26:08;20.23;;;10.95;;
68214;SDS011;55036;52.138;5.236;2022-11-20T00:28:37;18.23;;;11.55;;
68214;SDS011;55036;52.138;5.236;2022-11-20T00:31:05;23.40;;;12.75;;
68214;SDS011;55036;52.138;5.236;2022-11-20T00:33:33;20.67;;;13.25;;
68214;SDS011;55036;52.138;5.236;2022-11-20T00:36:04;22.92;;;13.65;;
68214;SDS011;55036;52.138;5.236;2022-11-20T00:38:33;21.42;;;13.65;;
68214;SDS011;55036;52.138;5.236;2022-11-20T00:41:02;21.67;;;13.10;;
68214;SDS011;55036;52.138;5.236;2022-11-20T00:43:31;20.48;;;11.80;;
68214;SDS011;55036;52.138;5.236;2022-11-20T00:46:01;19.35;;;11.98;;
68214;SDS011;55036;52.138;5.236;2022-11-20T00:48:30;22.00;;;12.63;;
68214;SDS011;55036;52.138;5.236;2022-11-20T00:50:57;18.20;;;11.30;;
68214;SDS011;55036;52.138;5.236;2022-11-20T00:53:24;18.88;;;10.48;;
68214;SDS011;55036;52.138;5.236;2022-11-20T00:58:24;22.17;;;11.82;;
68214;SDS011;55036;52.138;5.236;2022-11-20T01:00:51;20.55;;;11.70;;
68214;SDS011;55036;52.138;5.236;2022-11-20T01:03:18;17.17;;;10.52;;
68214;SDS011;55036;52.138;5.236;2022-11-20T01:05:52;16.75;;;10.63;;
68214;SDS011;55036;52.138;5.236;2022-11-20T01:08:18;18.15;;;11.57;;
68214;SDS011;55036;52.138;5.236;2022-11-20T01:10:45;18.15;;;11.40;;
68214;SDS011;55036;52.138;5.236;2022-11-20T01:13:11;21.77;;;11.73;;
68214;SDS011;55036;52.138;5.236;2022-11-20T01:16:01;18.95;;;11.10;;
68214;SDS011;55036;52.138;5.236;2022-11-20T01:18:49;18.63;;;10.90;;
68214;SDS011;55036;52.138;5.236;2022-11-20T01:21:22;17.80;;;11.07;;
68214;SDS011;55036;52.138;5.236;2022-11-20T01:23:51;18.60;;;11.10;;
68214;SDS011;55036;52.138;5.236;2022-11-20T01:26:19;17.40;;;11.68;;
68214;SDS011;55036;52.138;5.236;2022-11-20T01:28:47;18.00;;;11.77;;
68214;SDS011;55036;52.138;5.236;2022-11-20T01:33:49;20.23;;;11.55;;
68214;SDS011;55036;52.138;5.236;2022-11-20T01:36:20;20.75;;;10.80;;
68214;SDS011;55036;52.138;5.236;2022-11-20T01:38:51;18.98;;;10.70;;
68214;SDS011;55036;52.138;5.236;2022-11-20T01:41:22;18.08;;;10.50;;
68214;SDS011;55036;52.138;5.236;2022-11-20T01:44:10;18.40;;;10.52;;
68214;SDS011;55036;52.138;5.236;2022-11-20T01:49:37;20.83;;;11.38;;
68214;SDS011;55036;52.138;5.236;2022-11-20T01:52:15;17.25;;;11.07;;
68214;SDS011;55036;52.138;5.236;2022-11-20T01:54:47;19.02;;;11.57;;
68214;SDS011;55036;52.138;5.236;2022-11-20T01:57:46;21.42;;;11.43;;
68214;SDS011;55036;52.138;5.236;2022-11-20T02:00:16;19.00;;;11.48;;
68214;SDS011;55036;52.138;5.236;2022-11-20T02:02:46;17.88;;;10.63;;
68214;SDS011;55036;52.138;5.236;2022-11-20T02:05:25;21.33;;;11.48;;
68214;SDS011;55036;52.138;5.236;2022-11-20T02:08:12;18.95;;;11.80;;
68214;SDS011;55036;52.138;5.236;2022-11-20T02:10:39;21.38;;;11.48;;
68214;SDS011;55036;52.138;5.236;2022-11-20T02:13:05;17.95;;;11.75;;
68214;SDS011;55036;52.138;5.236;2022-11-20T02:15:50;19.38;;;11.15;;
68214;SDS011;55036;52.138;5.236;2022-11-20T02:18:18;21.80;;;11.93;;
68214;SDS011;55036;52.138;5.236;2022-11-20T02:20:47;23.98;;;14.02;;
68214;SDS011;55036;52.138;5.236;2022-11-20T02:25:59;23.63;;;12.07;;
68214;SDS011;55036;52.138;5.236;2022-11-20T02:28:29;20.70;;;11.95;;
68214;SDS011;55036;52.138;5.236;2022-11-20T02:30:55;20.08;;;11.40;;
68214;SDS011;55036;52.138;5.236;2022-11-20T02:33:22;19.65;;;11.52;;
68214;SDS011;55036;52.138;5.236;2022-11-20T02:35:49;18.67;;;11.70;;
68214;SDS011;55036;52.138;5.236;2022-11-20T02:38:16;18.52;;;11.38;;
68214;SDS011;55036;52.138;5.236;2022-11-20T02:40:43;18.35;;;11.10;;
68214;SDS011;55036;52.138;5.236;2022-11-20T02:43:10;18.92;;;11.82;;
68214;SDS011;55036;52.138;5.236;2022-11-20T02:45:37;21.02;;;11.93;;
68214;SDS011;55036;52.138;5.236;2022-11-20T02:48:05;19.60;;;11.48;;
68214;SDS011;55036;52.138;5.236;2022-11-20T02:50:33;19.33;;;12.05;;
68214;SDS011;55036;52.138;5.236;2022-11-20T02:53:02;20.95;;;12.57;;
68214;SDS011;55036;52.138;5.236;2022-11-20T02:55:28;71.07;;;27.48;;
68214;SDS011;55036;52.138;5.236;2022-11-20T02:57:55;77.90;;;31.25;;
68214;SDS011;55036;52.138;5.236;2022-11-20T03:00:22;62.28;;;27.27;;
68214;SDS011;55036;52.138;5.236;2022-11-20T03:02:48;49.80;;;22.17;;
68214;SDS011;55036;52.138;5.236;2022-11-20T03:05:15;46.47;;;19.10;;
68214;SDS011;55036;52.138;5.236;2022-11-20T03:07:42;36.63;;;16.42;;
68214;SDS011;55036;52.138;5.236;2022-11-20T03:10:09;26.75;;;15.88;;
68214;SDS011;55036;52.138;5.236;2022-11-20T03:12:36;26.42;;;14.88;;
68214;SDS011;55036;52.138;5.236;2022-11-20T03:15:03;28.50;;;15.88;;
68214;SDS011;55036;52.138;5.236;2022-11-20T03:17:30;28.35;;;14.27;;
68214;SDS011;55036;52.138;5.236;2022-11-20T03:19:56;23.17;;;12.63;;
68214;SDS011;55036;52.138;5.236;2022-11-20T03:22:23;19.50;;;12.82;;
68214;SDS011;55036;52.138;5.236;2022-11-20T03:24:49;19.85;;;11.68;;
68214;SDS011;55036;52.138;5.236;2022-11-20T03:27:17;20.63;;;12.10;;
68214;SDS011;55036;52.138;5.236;2022-11-20T03:29:43;20.42;;;12.40;;
68214;SDS011;55036;52.138;5.236;2022-11-20T03:32:10;19.70;;;11.18;;
68214;SDS011;55036;52.138;5.236;2022-11-20T03:34:36;20.55;;;12.55;;
68214;SDS011;55036;52.138;5.236;2022-11-20T03:37:03;23.90;;;11.93;;
68214;SDS011;55036;52.138;5.236;2022-11-20T03:39:30;20.08;;;12.48;;
68214;SDS011;55036;52.138;5.236;2022-11-20T03:41:56;17.80;;;11.30;;
68214;SDS011;55036;52.138;5.236;2022-11-20T03:44:23;21.70;;;11.75;;
68214;SDS011;55036;52.138;5.236;2022-11-20T03:46:50;18.98;;;11.07;;
68214;SDS011;55036;52.138;5.236;2022-11-20T03:49:17;14.93;;;9.82;;
68214;SDS011;55036;52.138;5.236;2022-11-20T03:51:44;18.05;;;10.45;;
68214;SDS011;55036;52.138;5.236;2022-11-20T03:54:11;18.00;;;10.48;;
68214;SDS011;55036;52.138;5.236;2022-11-20T03:56:38;17.85;;;10.75;;
68214;SDS011;55036;52.138;5.236;2022-11-20T03:59:05;17.15;;;10.63;;
68214;SDS011;55036;52.138;5.236;2022-11-20T04:01:33;17.20;;;9.23;;
68214;SDS011;55036;52.138;5.236;2022-11-20T04:04:01;20.30;;;10.90;;
68214;SDS011;55036;52.138;5.236;2022-11-20T04:06:29;19.00;;;10.27;;
68214;SDS011;55036;52.138;5.236;2022-11-20T04:08:59;20.48;;;12.55;;
68214;SDS011;55036;52.138;5.236;2022-11-20T04:11:27;21.35;;;12.38;;
68214;SDS011;55036;52.138;5.236;2022-11-20T04:13:56;23.15;;;12.82;;
68214;SDS011;55036;52.138;5.236;2022-11-20T04:16:25;32.65;;;16.40;;
68214;SDS011;55036;52.138;5.236;2022-11-20T04:18:53;22.73;;;13.18;;
68214;SDS011;55036;52.138;5.236;2022-11-20T04:23:51;19.33;;;10.95;;
68214;SDS011;55036;52.138;5.236;2022-11-20T04:26:22;18.63;;;10.93;;
68214;SDS011;55036;52.138;5.236;2022-11-20T04:28:50;16.90;;;9.38;;
68214;SDS011;55036;52.138;5.236;2022-11-20T04:31:17;14.35;;;9.82;;
68214;SDS011;55036;52.138;5.236;2022-11-20T04:33:46;20.80;;;12.05;;
68214;SDS011;55036;52.138;5.236;2022-11-20T04:36:19;42.42;;;19.35;;
68214;SDS011;55036;52.138;5.236;2022-11-20T04:38:50;68.65;;;31.02;;
68214;SDS011;55036;52.138;5.236;2022-11-20T04:41:23;59.85;;;27.02;;
68214;SDS011;55036;52.138;5.236;2022-11-20T04:43:55;53.33;;;25.70;;
68214;SDS011;55036;52.138;5.236;2022-11-20T04:46:26;56.40;;;26.67;;
68214;SDS011;55036;52.138;5.236;2022-11-20T04:48:53;49.38;;;23.48;;
68214;SDS011;55036;52.138;5.236;2022-11-20T04:51:20;40.85;;;20.73;;
68214;SDS011;55036;52.138;5.236;2022-11-20T04:53:47;35.97;;;18.70;;
68214;SDS011;55036;52.138;5.236;2022-11-20T04:56:14;30.42;;;14.63;;
68214;SDS011;55036;52.138;5.236;2022-11-20T04:58:41;37.95;;;18.02;;
68214;SDS011;55036;52.138;5.236;2022-11-20T05:01:12;29.45;;;15.45;;
68214;SDS011;55036;52.138;5.236;2022-11-20T05:03:43;25.88;;;14.35;;
68214;SDS011;55036;52.138;5.236;2022-11-20T05:06:11;24.35;;;12.73;;
68214;SDS011;55036;52.138;5.236;2022-11-20T05:08:39;23.45;;;12.88;;
68214;SDS011;55036;52.138;5.236;2022-11-20T05:11:08;18.20;;;10.32;;
68214;SDS011;55036;52.138;5.236;2022-11-20T05:13:37;18.67;;;10.50;;
68214;SDS011;55036;52.138;5.236;2022-11-20T05:16:09;13.63;;;8.35;;
68214;SDS011;55036;52.138;5.236;2022-11-20T05:18:38;15.13;;;9.25;;
68214;SDS011;55036;52.138;5.236;2022-11-20T05:21:05;18.88;;;10.80;;
68214;SDS011;55036;52.138;5.236;2022-11-20T05:23:33;17.92;;;9.50;;
68214;SDS011;55036;52.138;5.236;2022-11-20T05:26:00;17.90;;;9.63;;
68214;SDS011;55036;52.138;5.236;2022-11-20T05:28:28;20.48;;;9.52;;
68214;SDS011;55036;52.138;5.236;2022-11-20T05:30:55;18.98;;;10.10;;
68214;SDS011;55036;52.138;5.236;2022-11-20T05:33:22;15.52;;;8.93;;
68214;SDS011;55036;52.138;5.236;2022-11-20T05:35:49;17.48;;;9.82;;
68214;SDS011;55036;52.138;5.236;2022-11-20T05:38:15;17.77;;;9.90;;
68214;SDS011;55036;52.138;5.236;2022-11-20T05:40:42;15.18;;;9.15;;
68214;SDS011;55036;52.138;5.236;2022-11-20T05:43:09;20.45;;;10.30;;
68214;SDS011;55036;52.138;5.236;2022-11-20T05:45:35;17.98;;;9.93;;
68214;SDS011;55036;52.138;5.236;2022-11-20T05:48:02;18.23;;;9.60;;
68214;SDS011;55036;52.138;5.236;2022-11-20T05:50:29;18.77;;;9.48;;
68214;SDS011;55036;52.138;5.236;2022-11-20T05:52:57;14.70;;;9.32;;
68214;SDS011;55036;52.138;5.236;2022-11-20T05:55:26;17.08;;;9.63;;
68214;SDS011;55036;52.138;5.236;2022-11-20T05:57:53;16.52;;;9.43;;
68214;SDS011;55036;52.138;5.236;2022-11-20T06:00:21;15.65;;;8.90;;
68214;SDS011;55036;52.138;5.236;2022-11-20T06:02:47;14.10;;;8.80;;
68214;SDS011;55036;52.138;5.236;2022-11-20T06:05:14;18.52;;;9.73;;
68214;SDS011;55036;52.138;5.236;2022-11-20T06:07:41;15.40;;;8.20;;
68214;SDS011;55036;52.138;5.236;2022-11-20T06:10:08;16.33;;;8.93;;
68214;SDS011;55036;52.138;5.236;2022-11-20T06:12:35;15.05;;;8.75;;
68214;SDS011;55036;52.138;5.236;2022-11-20T06:15:02;14.95;;;9.43;;
68214;SDS011;55036;52.138;5.236;2022-11-20T06:17:29;15.77;;;9.65;;
68214;SDS011;55036;52.138;5.236;2022-11-20T06:19:56;15.25;;;9.48;;
68214;SDS011;55036;52.138;5.236;2022-11-20T06:22:23;17.60;;;9.43;;
68214;SDS011;55036;52.138;5.236;2022-11-20T06:24:49;15.52;;;8.55;;
68214;SDS011;55036;52.138;5.236;2022-11-20T06:27:16;16.08;;;9.30;;
68214;SDS011;55036;52.138;5.236;2022-11-20T06:29:43;15.68;;;9.15;;
68214;SDS011;55036;52.138;5.236;2022-11-20T06:32:09;17.48;;;9.75;;
68214;SDS011;55036;52.138;5.236;2022-11-20T06:34:36;16.65;;;9.60;;
68214;SDS011;55036;52.138;5.236;2022-11-20T06:37:03;15.05;;;9.23;;
68214;SDS011;55036;52.138;5.236;2022-11-20T06:39:29;18.38;;;9.15;;
68214;SDS011;55036;52.138;5.236;2022-11-20T06:41:56;16.92;;;9.45;;
68214;SDS011;55036;52.138;5.236;2022-11-20T06:44:24;17.90;;;9.65;;
68214;SDS011;55036;52.138;5.236;2022-11-20T06:46:51;17.15;;;9.48;;
68214;SDS011;55036;52.138;5.236;2022-11-20T06:49:18;15.55;;;9.05;;
68214;SDS011;55036;52.138;5.236;2022-11-20T06:51:45;14.90;;;9.10;;
68214;SDS011;55036;52.138;5.236;2022-11-20T06:54:11;16.20;;;10.07;;
68214;SDS011;55036;52.138;5.236;2022-11-20T06:56:38;13.90;;;8.30;;
68214;SDS011;55036;52.138;5.236;2022-11-20T06:59:05;18.17;;;10.70;;
68214;SDS011;55036;52.138;5.236;2022-11-20T07:01:33;15.25;;;8.85;;
68214;SDS011;55036;52.138;5.236;2022-11-20T07:04:00;16.13;;;9.82;;
68214;SDS011;55036;52.138;5.236;2022-11-20T07:06:28;14.75;;;8.60;;
68214;SDS011;55036;52.138;5.236;2022-11-20T07:08:54;15.05;;;8.63;;
68214;SDS011;55036;52.138;5.236;2022-11-20T07:11:21;18.50;;;9.57;;
68214;SDS011;55036;52.138;5.236;2022-11-20T07:13:48;17.33;;;9.75;;
68214;SDS011;55036;52.138;5.236;2022-11-20T07:16:14;17.17;;;9.57;;
68214;SDS011;55036;52.138;5.236;2022-11-20T07:18:41;14.80;;;8.73;;
68214;SDS011;55036;52.138;5.236;2022-11-20T07:21:15;18.13;;;9.38;;
68214;SDS011;55036;52.138;5.236;2022-11-20T07:23:42;18.88;;;9.30;;
68214;SDS011;55036;52.138;5.236;2022-11-20T07:26:09;18.05;;;9.55;;
68214;SDS011;55036;52.138;5.236;2022-11-20T07:28:37;15.07;;;8.90;;
68214;SDS011;55036;52.138;5.236;2022-11-20T07:31:04;17.17;;;9.85;;
68214;SDS011;55036;52.138;5.236;2022-11-20T07:33:32;14.00;;;8.98;;
68214;SDS011;55036;52.138;5.236;2022-11-20T07:35:59;16.35;;;9.32;;
68214;SDS011;55036;52.138;5.236;2022-11-20T07:38:26;17.02;;;10.10;;
68214;SDS011;55036;52.138;5.236;2022-11-20T07:40:53;16.67;;;9.45;;
68214;SDS011;55036;52.138;5.236;2022-11-20T07:43:21;18.83;;;9.50;;
68214;SDS011;55036;52.138;5.236;2022-11-20T07:45:48;18.00;;;9.68;;
68214;SDS011;55036;52.138;5.236;2022-11-20T07:48:14;17.75;;;10.48;;
68214;SDS011;55036;52.138;5.236;2022-11-20T07:50:41;20.27;;;11.85;;
68214;SDS011;55036;52.138;5.236;2022-11-20T07:53:08;19.45;;;11.23;;
68214;SDS011;55036;52.138;5.236;2022-11-20T07:55:34;17.95;;;10.98;;
68214;SDS011;55036;52.138;5.236;2022-11-20T07:58:01;19.58;;;11.27;;
68214;SDS011;55036;52.138;5.236;2022-11-20T08:00:27;20.90;;;12.07;;
68214;SDS011;55036;52.138;5.236;2022-11-20T08:02:54;24.27;;;11.93;;
68214;SDS011;55036;52.138;5.236;2022-11-20T08:05:21;20.38;;;10.90;;
68214;SDS011;55036;52.138;5.236;2022-11-20T08:07:48;17.42;;;10.52;;
68214;SDS011;55036;52.138;5.236;2022-11-20T08:10:15;19.48;;;11.60;;
68214;SDS011;55036;52.138;5.236;2022-11-20T08:12:49;19.50;;;10.50;;
68214;SDS011;55036;52.138;5.236;2022-11-20T08:15:36;17.80;;;10.68;;
68214;SDS011;55036;52.138;5.236;2022-11-20T08:18:05;19.23;;;11.50;;
68214;SDS011;55036;52.138;5.236;2022-11-20T08:20:53;19.17;;;11.15;;
68214;SDS011;55036;52.138;5.236;2022-11-20T08:23:20;18.33;;;11.55;;
68214;SDS011;55036;52.138;5.236;2022-11-20T08:25:49;17.58;;;10.48;;
68214;SDS011;55036;52.138;5.236;2022-11-20T08:28:16;18.65;;;11.15;;
68214;SDS011;55036;52.138;5.236;2022-11-20T08:30:47;20.80;;;11.77;;
68214;SDS011;55036;52.138;5.236;2022-11-20T08:33:14;18.30;;;11.98;;
68214;SDS011;55036;52.138;5.236;2022-11-20T08:35:40;20.08;;;11.55;;
68214;SDS011;55036;52.138;5.236;2022-11-20T08:38:08;19.55;;;11.65;;
68214;SDS011;55036;52.138;5.236;2022-11-20T08:40:35;19.00;;;11.57;;
68214;SDS011;55036;52.138;5.236;2022-11-20T08:43:02;19.80;;;12.48;;
68214;SDS011;55036;52.138;5.236;2022-11-20T08:45:28;21.85;;;12.30;;
68214;SDS011;55036;52.138;5.236;2022-11-20T08:48:00;23.52;;;12.18;;
68214;SDS011;55036;52.138;5.236;2022-11-20T08:50:30;25.00;;;13.40;;
68214;SDS011;55036;52.138;5.236;2022-11-20T08:53:03;22.05;;;13.05;;
68214;SDS011;55036;52.138;5.236;2022-11-20T08:55:30;21.02;;;13.63;;
68214;SDS011;55036;52.138;5.236;2022-11-20T08:57:57;22.83;;;13.30;;
68214;SDS011;55036;52.138;5.236;2022-11-20T09:00:24;22.52;;;13.05;;
68214;SDS011;55036;52.138;5.236;2022-11-20T09:02:51;24.27;;;12.43;;
68214;SDS011;55036;52.138;5.236;2022-11-20T09:05:18;20.55;;;12.55;;
68214;SDS011;55036;52.138;5.236;2022-11-20T09:07:44;21.73;;;13.15;;
68214;SDS011;55036;52.138;5.236;2022-11-20T09:10:11;20.73;;;12.35;;
68214;SDS011;55036;52.138;5.236;2022-11-20T09:12:53;19.48;;;12.88;;
68214;SDS011;55036;52.138;5.236;2022-11-20T09:15:21;22.38;;;13.73;;
68214;SDS011;55036;52.138;5.236;2022-11-20T09:17:55;20.30;;;12.27;;
68214;SDS011;55036;52.138;5.236;2022-11-20T09:20:26;22.20;;;12.93;;
68214;SDS011;55036;52.138;5.236;2022-11-20T09:22:55;19.88;;;13.23;;
68214;SDS011;55036;52.138;5.236;2022-11-20T09:25:22;22.63;;;13.73;;
68214;SDS011;55036;52.138;5.236;2022-11-20T09:27:55;19.60;;;12.55;;
68214;SDS011;55036;52.138;5.236;2022-11-20T09:30:25;23.33;;;14.27;;
68214;SDS011;55036;52.138;5.236;2022-11-20T09:32:53;22.95;;;13.70;;
68214;SDS011;55036;52.138;5.236;2022-11-20T09:35:19;26.85;;;14.38;;
68214;SDS011;55036;52.138;5.236;2022-11-20T09:37:46;23.08;;;13.23;;
68214;SDS011;55036;52.138;5.236;2022-11-20T09:40:23;19.75;;;13.13;;
68214;SDS011;55036;52.138;5.236;2022-11-20T09:49:09;22.92;;;13.93;;
68214;SDS011;55036;52.138;5.236;2022-11-20T09:51:59;22.75;;;13.60;;
68214;SDS011;55036;52.138;5.236;2022-11-20T09:54:33;26.75;;;13.57;;
68214;SDS011;55036;52.138;5.236;2022-11-20T09:57:05;23.52;;;13.82;;
68214;SDS011;55036;52.138;5.236;2022-11-20T09:59:48;23.98;;;15.10;;
68214;SDS011;55036;52.138;5.236;2022-11-20T10:04:55;26.17;;;14.75;;
68214;SDS011;55036;52.138;5.236;2022-11-20T10:07:33;22.05;;;13.35;;
68214;SDS011;55036;52.138;5.236;2022-11-20T10:10:30;26.55;;;15.10;;
68214;SDS011;55036;52.138;5.236;2022-11-20T10:24:42;22.83;;;13.75;;
68214;SDS011;55036;52.138;5.236;2022-11-20T10:32:36;23.85;;;15.60;;
68214;SDS011;55036;52.138;5.236;2022-11-20T10:38:02;22.85;;;13.05;;
68214;SDS011;55036;52.138;5.236;2022-11-20T10:40:36;24.85;;;15.18;;
68214;SDS011;55036;52.138;5.236;2022-11-20T10:43:16;27.48;;;15.02;;
68214;SDS011;55036;52.138;5.236;2022-11-20T10:45:56;27.10;;;15.23;;
68214;SDS011;55036;52.138;5.236;2022-11-20T10:48:27;25.88;;;15.38;;
68214;SDS011;55036;52.138;5.236;2022-11-20T10:59:03;24.92;;;14.55;;
68214;SDS011;55036;52.138;5.236;2022-11-20T11:01:30;27.73;;;16.70;;
68214;SDS011;55036;52.138;5.236;2022-11-20T11:03:57;30.77;;;15.63;;
68214;SDS011;55036;52.138;5.236;2022-11-20T11:06:35;26.58;;;15.13;;
68214;SDS011;55036;52.138;5.236;2022-11-20T11:09:19;27.73;;;16.42;;
68214;SDS011;55036;52.138;5.236;2022-11-20T11:11:54;27.50;;;16.33;;
68214;SDS011;55036;52.138;5.236;2022-11-20T11:14:21;26.58;;;14.95;;
68214;SDS011;55036;52.138;5.236;2022-11-20T11:16:54;26.88;;;16.58;;
68214;SDS011;55036;52.138;5.236;2022-11-20T11:19:23;28.85;;;16.33;;
68214;SDS011;55036;52.138;5.236;2022-11-20T11:21:54;27.75;;;16.88;;
68214;SDS011;55036;52.138;5.236;2022-11-20T11:24:26;31.10;;;17.27;;
68214;SDS011;55036;52.138;5.236;2022-11-20T11:27:13;30.60;;;16.13;;
68214;SDS011;55036;52.138;5.236;2022-11-20T11:29:44;28.13;;;15.88;;
68214;SDS011;55036;52.138;5.236;2022-11-20T11:32:13;29.50;;;17.95;;
68214;SDS011;55036;52.138;5.236;2022-11-20T11:35:04;33.10;;;17.88;;
68214;SDS011;55036;52.138;5.236;2022-11-20T11:37:35;31.92;;;17.92;;
68214;SDS011;55036;52.138;5.236;2022-11-20T11:42:52;28.67;;;17.38;;
68214;SDS011;55036;52.138;5.236;2022-11-20T11:45:21;34.95;;;19.30;;
68214;SDS011;55036;52.138;5.236;2022-11-20T11:47:47;34.10;;;18.83;;
68214;SDS011;55036;52.138;5.236;2022-11-20T11:50:24;31.60;;;17.95;;
68214;SDS011;55036;52.138;5.236;2022-11-20T11:53:01;34.40;;;18.60;;
68214;SDS011;55036;52.138;5.236;2022-11-20T11:55:43;34.15;;;18.10;;
68214;SDS011;55036;52.138;5.236;2022-11-20T11:58:48;36.00;;;19.33;;
68214;SDS011;55036;52.138;5.236;2022-11-20T12:03:55;36.00;;;19.73;;
68214;SDS011;55036;52.138;5.236;2022-11-20T12:06:41;33.97;;;19.50;;
68214;SDS011;55036;52.138;5.236;2022-11-20T12:09:11;39.03;;;17.13;;
68214;SDS011;55036;52.138;5.236;2022-11-20T12:14:42;38.45;;;19.10;;
68214;SDS011;55036;52.138;5.236;2022-11-20T12:19:38;33.28;;;17.60;;
68214;SDS011;55036;52.138;5.236;2022-11-20T12:25:04;28.20;;;15.80;;
68214;SDS011;55036;52.138;5.236;2022-11-20T12:30:33;38.45;;;21.05;;
68214;SDS011;55036;52.138;5.236;2022-11-20T12:33:25;32.10;;;17.40;;
68214;SDS011;55036;52.138;5.236;2022-11-20T12:50:14;34.90;;;16.58;;
68214;SDS011;55036;52.138;5.236;2022-11-20T12:53:25;39.45;;;20.77;;
68214;SDS011;55036;52.138;5.236;2022-11-20T12:58:51;35.40;;;20.77;;
68214;SDS011;55036;52.138;5.236;2022-11-20T13:01:37;39.88;;;20.83;;
68214;SDS011;55036;52.138;5.236;2022-11-20T13:06:52;38.53;;;21.48;;
68214;SDS011;55036;52.138;5.236;2022-11-20T13:09:20;39.22;;;21.42;;
68214;SDS011;55036;52.138;5.236;2022-11-20T13:14:39;42.13;;;21.92;;
68214;SDS011;55036;52.138;5.236;2022-11-20T13:20:17;44.30;;;21.90;;
68214;SDS011;55036;52.138;5.236;2022-11-20T13:22:46;33.88;;;16.88;;
68214;SDS011;55036;52.138;5.236;2022-11-20T13:30:36;35.17;;;20.02;;
68214;SDS011;55036;52.138;5.236;2022-11-20T13:33:30;42.92;;;21.98;;
68214;SDS011;55036;52.138;5.236;2022-11-20T13:41:33;42.83;;;22.58;;
68214;SDS011;55036;52.138;5.236;2022-11-20T13:46:40;38.58;;;20.33;;
68214;SDS011;55036;52.138;5.236;2022-11-20T13:49:19;40.13;;;22.10;;
68214;SDS011;55036;52.138;5.236;2022-11-20T13:52:06;45.83;;;22.73;;
68214;SDS011;55036;52.138;5.236;2022-11-20T14:00:16;42.88;;;22.50;;
68214;SDS011;55036;52.138;5.236;2022-11-20T14:02:45;40.38;;;22.40;;
68214;SDS011;55036;52.138;5.236;2022-11-20T14:05:25;41.17;;;22.70;;
68214;SDS011;55036;52.138;5.236;2022-11-20T14:07:52;42.47;;;23.65;;
68214;SDS011;55036;52.138;5.236;2022-11-20T14:12:57;44.42;;;22.23;;
68214;SDS011;55036;52.138;5.236;2022-11-20T14:17:53;46.95;;;21.63;;
68214;SDS011;55036;52.138;5.236;2022-11-20T14:20:19;41.33;;;22.15;;
68214;SDS011;55036;52.138;5.236;2022-11-20T14:22:51;37.63;;;22.58;;
68214;SDS011;55036;52.138;5.236;2022-11-20T14:25:21;43.22;;;23.25;;
68214;SDS011;55036;52.138;5.236;2022-11-20T14:27:53;44.25;;;23.25;;
68214;SDS011;55036;52.138;5.236;2022-11-20T14:30:23;46.85;;;22.25;;
68214;SDS011;55036;52.138;5.236;2022-11-20T14:33:01;33.92;;;17.67;;
68214;SDS011;55036;52.138;5.236;2022-11-20T14:35:30;45.92;;;22.95;;
68214;SDS011;55036;52.138;5.236;2022-11-20T14:38:01;39.40;;;22.27;;
68214;SDS011;55036;52.138;5.236;2022-11-20T14:40:32;45.28;;;23.85;;
68214;SDS011;55036;52.138;5.236;2022-11-20T14:43:04;39.90;;;21.33;;
68214;SDS011;55036;52.138;5.236;2022-11-20T14:45:54;45.05;;;24.60;;
68214;SDS011;55036;52.138;5.236;2022-11-20T14:48:29;41.40;;;21.33;;
68214;SDS011;55036;52.138;5.236;2022-11-20T14:51:00;43.80;;;21.67;;
68214;SDS011;55036;52.138;5.236;2022-11-20T14:53:26;46.78;;;23.65;;
68214;SDS011;55036;52.138;5.236;2022-11-20T14:55:54;47.75;;;22.92;;
68214;SDS011;55036;52.138;5.236;2022-11-20T15:01:00;47.47;;;23.10;;
68214;SDS011;55036;52.138;5.236;2022-11-20T15:03:38;46.38;;;21.67;;
68214;SDS011;55036;52.138;5.236;2022-11-20T15:06:07;45.70;;;21.90;;
68214;SDS011;55036;52.138;5.236;2022-11-20T15:08:37;43.97;;;22.92;;
68214;SDS011;55036;52.138;5.236;2022-11-20T15:11:14;37.25;;;20.20;;
68214;SDS011;55036;52.138;5.236;2022-11-20T15:13:49;45.08;;;22.13;;
68214;SDS011;55036;52.138;5.236;2022-11-20T15:16:17;46.08;;;22.42;;
68214;SDS011;55036;52.138;5.236;2022-11-20T15:18:48;50.83;;;24.42;;
68214;SDS011;55036;52.138;5.236;2022-11-20T15:21:16;45.67;;;22.25;;
68214;SDS011;55036;52.138;5.236;2022-11-20T15:23:44;44.67;;;22.48;;
68214;SDS011;55036;52.138;5.236;2022-11-20T15:26:12;48.53;;;21.60;;
68214;SDS011;55036;52.138;5.236;2022-11-20T15:28:46;46.42;;;22.02;;
68214;SDS011;55036;52.138;5.236;2022-11-20T15:31:16;42.30;;;22.02;;
68214;SDS011;55036;52.138;5.236;2022-11-20T15:33:48;42.83;;;23.08;;
68214;SDS011;55036;52.138;5.236;2022-11-20T15:36:15;46.53;;;23.05;;
68214;SDS011;55036;52.138;5.236;2022-11-20T15:38:42;39.13;;;19.58;;
68214;SDS011;55036;52.138;5.236;2022-11-20T15:41:09;38.72;;;19.23;;
68214;SDS011;55036;52.138;5.236;2022-11-20T15:43:36;36.33;;;20.45;;
68214;SDS011;55036;52.138;5.236;2022-11-20T15:46:12;42.55;;;21.98;;
68214;SDS011;55036;52.138;5.236;2022-11-20T15:48:42;41.35;;;21.27;;
68214;SDS011;55036;52.138;5.236;2022-11-20T15:53:55;26.95;;;16.02;;
68214;SDS011;55036;52.138;5.236;2022-11-20T15:56:23;32.05;;;18.33;;
68214;SDS011;55036;52.138;5.236;2022-11-20T15:58:50;39.95;;;20.88;;
68214;SDS011;55036;52.138;5.236;2022-11-20T16:01:17;29.98;;;16.52;;
68214;SDS011;55036;52.138;5.236;2022-11-20T16:03:46;23.80;;;15.15;;
68214;SDS011;55036;52.138;5.236;2022-11-20T16:06:13;29.30;;;16.88;;
68214;SDS011;55036;52.138;5.236;2022-11-20T16:08:42;40.15;;;22.00;;
68214;SDS011;55036;52.138;5.236;2022-11-20T16:11:12;38.92;;;20.25;;
68214;SDS011;55036;52.138;5.236;2022-11-20T16:13:40;33.38;;;17.13;;
68214;SDS011;55036;52.138;5.236;2022-11-20T16:18:54;42.03;;;20.85;;
68214;SDS011;55036;52.138;5.236;2022-11-20T16:21:21;37.58;;;20.20;;
68214;SDS011;55036;52.138;5.236;2022-11-20T16:23:53;43.60;;;21.75;;
68214;SDS011;55036;52.138;5.236;2022-11-20T16:26:20;39.45;;;21.25;;
68214;SDS011;55036;52.138;5.236;2022-11-20T16:28:47;37.17;;;18.77;;
68214;SDS011;55036;52.138;5.236;2022-11-20T16:31:14;31.08;;;14.55;;
68214;SDS011;55036;52.138;5.236;2022-11-20T16:33:43;48.47;;;23.02;;
68214;SDS011;55036;52.138;5.236;2022-11-20T16:36:22;45.55;;;21.88;;
68214;SDS011;55036;52.138;5.236;2022-11-20T16:38:54;39.35;;;20.52;;
68214;SDS011;55036;52.138;5.236;2022-11-20T16:41:26;43.80;;;22.13;;
68214;SDS011;55036;52.138;5.236;2022-11-20T16:43:54;42.65;;;22.05;;
68214;SDS011;55036;52.138;5.236;2022-11-20T16:46:27;38.63;;;19.02;;